createdAt,value
2019-06-26T00:00:26.100Z,91.60
2019-06-26T00:00:59.244Z,91.70
2019-06-26T00:01:32.019Z,91.80
2019-06-26T00:02:05.140Z,91.70
2019-06-26T00:02:38.248Z,91.80
2019-06-26T00:03:11.359Z,91.80
2019-06-26T00:03:44.092Z,92.20
2019-06-26T00:04:17.196Z,91.90
2019-06-26T00:04:50.332Z,91.80
2019-06-26T00:05:23.535Z,91.80
2019-06-26T00:05:56.260Z,91.80
2019-06-26T00:06:29.364Z,91.80
2019-06-26T00:07:02.475Z,91.80
2019-06-26T00:07:35.586Z,91.80
2019-06-26T00:08:08.319Z,91.80
2019-06-26T00:08:41.428Z,91.80
2019-06-26T00:09:14.540Z,91.50
2019-06-26T00:09:47.726Z,91.80
2019-06-26T00:10:20.548Z,91.80
2019-06-26T00:10:53.677Z,91.80
2019-06-26T00:11:26.788Z,92.00
2019-06-26T00:11:59.897Z,92.10
2019-06-26T00:12:32.633Z,92.00
2019-06-26T00:13:05.780Z,91.90
2019-06-26T00:13:38.888Z,91.90
2019-06-26T00:14:11.998Z,92.00
2019-06-26T00:14:44.736Z,92.10
2019-06-26T00:15:18.229Z,92.10
2019-06-26T00:15:51.400Z,92.00
2019-06-26T00:16:24.578Z,92.30
2019-06-26T00:16:57.316Z,92.20
2019-06-26T00:17:30.423Z,92.20
2019-06-26T00:18:03.546Z,92.20
2019-06-26T00:18:36.651Z,92.20
2019-06-26T00:19:09.387Z,92.20
2019-06-26T00:19:42.495Z,92.30
2019-06-26T00:20:15.674Z,92.40
2019-06-26T00:20:48.781Z,92.40
2019-06-26T00:21:22.099Z,92.50
2019-06-26T00:21:55.368Z,92.50
2019-06-26T00:22:28.482Z,92.50
2019-06-26T00:23:01.595Z,92.40
2019-06-26T00:23:34.322Z,92.40
2019-06-26T00:24:07.444Z,92.50
2019-06-26T00:24:40.546Z,92.50
2019-06-26T00:25:13.651Z,92.50
2019-06-26T00:25:46.388Z,92.50
2019-06-26T00:26:19.494Z,92.40
2019-06-26T00:26:52.627Z,92.40
2019-06-26T00:27:25.756Z,92.50
2019-06-26T00:27:58.476Z,92.60
2019-06-26T00:28:31.600Z,92.60
2019-06-26T00:29:04.704Z,92.60
2019-06-26T00:29:37.820Z,92.60
2019-06-26T00:30:10.543Z,92.60
2019-06-26T00:30:43.655Z,92.60
2019-06-26T00:31:16.770Z,92.60
2019-06-26T00:31:49.880Z,92.60
2019-06-26T00:32:22.624Z,92.70
2019-06-26T00:32:55.752Z,92.70
2019-06-26T00:33:28.864Z,92.70
2019-06-26T00:34:01.977Z,92.70
2019-06-26T00:34:34.706Z,92.80
2019-06-26T00:35:07.824Z,92.80
2019-06-26T00:35:40.927Z,92.80
2019-06-26T00:36:14.062Z,92.80
2019-06-26T00:36:46.781Z,92.80
2019-06-26T00:37:19.907Z,92.80
2019-06-26T00:37:53.042Z,92.90
2019-06-26T00:38:26.193Z,92.90
2019-06-26T00:38:58.909Z,92.90
2019-06-26T00:39:32.012Z,93.00
2019-06-26T00:40:05.725Z,93.00
2019-06-26T00:40:38.807Z,93.10
2019-06-26T00:41:11.544Z,93.10
2019-06-26T00:41:44.652Z,93.10
2019-06-26T00:42:17.769Z,93.10
2019-06-26T00:42:50.912Z,93.10
2019-06-26T00:43:23.738Z,93.10
2019-06-26T00:43:56.879Z,93.10
2019-06-26T00:44:29.979Z,93.10
2019-06-26T00:45:03.141Z,93.00
2019-06-26T00:45:35.870Z,93.00
2019-06-26T00:46:08.979Z,93.10
2019-06-26T00:46:42.100Z,93.30
2019-06-26T00:47:15.208Z,93.30
2019-06-26T00:47:47.947Z,93.30
2019-06-26T00:48:21.046Z,93.30
2019-06-26T00:48:54.177Z,93.30
2019-06-26T00:49:27.319Z,93.30
2019-06-26T00:50:00.037Z,93.30
2019-06-26T00:50:33.151Z,93.30
2019-06-26T00:51:06.248Z,93.40
2019-06-26T00:51:39.357Z,93.40
2019-06-26T00:52:12.082Z,93.40
2019-06-26T00:52:45.213Z,93.40
2019-06-26T00:53:18.316Z,93.50
2019-06-26T00:53:51.647Z,93.50
2019-06-26T00:54:24.395Z,93.40
2019-06-26T00:54:57.572Z,93.40
2019-06-26T00:55:30.744Z,93.50
2019-06-26T00:56:03.855Z,93.40
2019-06-26T00:56:36.583Z,93.40
2019-06-26T00:57:09.701Z,93.50
2019-06-26T00:57:42.809Z,93.50
2019-06-26T00:58:15.919Z,93.50
2019-06-26T00:58:48.646Z,93.50
2019-06-26T00:59:21.761Z,93.50
2019-06-26T00:59:54.903Z,93.50
2019-06-26T01:00:29.267Z,93.60
2019-06-26T01:01:02.375Z,93.60
2019-06-26T01:01:35.490Z,93.60
2019-06-26T01:02:08.604Z,93.70
2019-06-26T01:02:41.331Z,93.70
2019-06-26T01:03:14.448Z,93.70
2019-06-26T01:03:49.238Z,93.60
2019-06-26T01:04:26.102Z,94.10
2019-06-26T01:05:06.352Z,93.70
2019-06-26T01:05:39.489Z,93.70
2019-06-26T01:06:13.849Z,93.70
2019-06-26T01:06:46.959Z,93.80
2019-06-26T01:07:20.070Z,93.80
2019-06-26T01:07:53.181Z,93.80
2019-06-26T01:08:25.910Z,93.90
2019-06-26T01:08:59.020Z,94.00
2019-06-26T01:09:32.131Z,94.00
2019-06-26T01:10:06.212Z,94.40
2019-06-26T01:10:38.960Z,94.00
2019-06-26T01:11:12.086Z,94.00
2019-06-26T01:11:45.202Z,94.10
2019-06-26T01:12:18.311Z,94.10
2019-06-26T01:12:51.040Z,94.10
2019-06-26T01:13:24.150Z,94.10
2019-06-26T01:13:58.341Z,94.10
2019-06-26T01:14:31.193Z,94.20
2019-06-26T01:15:05.473Z,94.20
2019-06-26T01:15:38.583Z,94.20
2019-06-26T01:16:11.722Z,94.20
2019-06-26T01:16:44.472Z,94.40
2019-06-26T01:17:17.585Z,94.40
2019-06-26T01:17:51.363Z,94.40
2019-06-26T01:18:24.470Z,94.30
2019-06-26T01:18:57.204Z,94.30
2019-06-26T01:19:30.312Z,94.40
2019-06-26T01:20:04.992Z,94.50
2019-06-26T01:20:38.095Z,94.50
2019-06-26T01:21:10.820Z,94.50
2019-06-26T01:21:43.955Z,94.60
2019-06-26T01:22:17.093Z,94.50
2019-06-26T01:22:50.194Z,94.40
2019-06-26T01:23:22.931Z,94.50
2019-06-26T01:23:56.046Z,94.60
2019-06-26T01:24:29.160Z,94.60
2019-06-26T01:25:02.286Z,94.70
2019-06-26T01:25:35.015Z,94.80
2019-06-26T01:26:08.119Z,94.80
2019-06-26T01:26:41.230Z,94.70
2019-06-26T01:27:14.363Z,94.80
2019-06-26T01:27:47.118Z,94.90
2019-06-26T01:28:20.228Z,94.90
2019-06-26T01:28:53.346Z,94.90
2019-06-26T01:29:26.466Z,94.90
2019-06-26T01:29:59.186Z,94.90
2019-06-26T01:30:32.295Z,94.90
2019-06-26T01:31:05.408Z,95.10
2019-06-26T01:31:38.519Z,95.00
2019-06-26T01:32:11.248Z,95.00
2019-06-26T01:32:44.388Z,95.10
2019-06-26T01:33:17.516Z,95.00
2019-06-26T01:33:50.647Z,95.00
2019-06-26T01:34:23.371Z,95.10
2019-06-26T01:34:56.489Z,95.10
2019-06-26T01:35:29.604Z,95.20
2019-06-26T01:36:02.713Z,95.10
2019-06-26T01:36:35.443Z,95.10
2019-06-26T01:37:08.556Z,95.20
2019-06-26T01:37:41.671Z,95.20
2019-06-26T01:38:14.802Z,95.40
2019-06-26T01:38:47.563Z,95.40
2019-06-26T01:39:20.671Z,95.70
2019-06-26T01:39:53.791Z,95.50
2019-06-26T01:40:26.900Z,95.30
2019-06-26T01:40:59.636Z,95.30
2019-06-26T01:41:32.744Z,95.10
2019-06-26T01:42:05.855Z,95.40
2019-06-26T01:42:38.964Z,95.40
2019-06-26T01:43:11.714Z,95.40
2019-06-26T01:43:44.832Z,95.40
2019-06-26T01:44:17.965Z,95.40
2019-06-26T01:44:51.070Z,95.50
2019-06-26T01:45:23.797Z,95.50
2019-06-26T01:45:56.910Z,95.60
2019-06-26T01:46:30.022Z,95.60
2019-06-26T01:47:03.139Z,95.70
2019-06-26T01:47:35.867Z,95.50
2019-06-26T01:48:08.981Z,95.50
2019-06-26T01:48:42.101Z,95.50
2019-06-26T01:49:15.222Z,95.60
2019-06-26T01:49:47.974Z,95.60
2019-06-26T01:50:21.089Z,95.60
2019-06-26T01:50:54.199Z,95.70
2019-06-26T01:51:27.313Z,95.80
2019-06-26T01:52:00.047Z,95.70
2019-06-26T01:52:33.167Z,95.70
2019-06-26T01:53:06.270Z,95.80
2019-06-26T01:53:39.383Z,95.80
2019-06-26T01:54:12.108Z,95.90
2019-06-26T01:54:45.239Z,96.00
2019-06-26T01:55:18.374Z,96.00
2019-06-26T01:55:51.484Z,96.00
2019-06-26T01:56:24.215Z,96.00
2019-06-26T01:56:57.335Z,96.00
2019-06-26T01:57:30.443Z,95.90
2019-06-26T01:58:03.560Z,96.00
2019-06-26T01:58:36.294Z,96.00
2019-06-26T01:59:09.410Z,96.00
2019-06-26T01:59:42.548Z,96.00
2019-06-26T02:00:15.691Z,96.10
2019-06-26T02:00:48.439Z,96.00
2019-06-26T02:01:21.815Z,96.10
2019-06-26T02:01:54.939Z,96.10
2019-06-26T02:02:28.043Z,96.00
2019-06-26T02:03:00.769Z,96.10
2019-06-26T02:03:33.891Z,96.20
2019-06-26T02:04:07.048Z,96.40
2019-06-26T02:04:40.119Z,96.20
2019-06-26T02:05:12.850Z,96.20
2019-06-26T02:05:45.993Z,96.30
2019-06-26T02:06:19.109Z,96.40
2019-06-26T02:06:52.219Z,96.40
2019-06-26T02:07:24.952Z,96.50
2019-06-26T02:07:58.067Z,96.60
2019-06-26T02:08:31.179Z,96.90
2019-06-26T02:09:04.957Z,96.50
2019-06-26T02:09:37.681Z,96.50
2019-06-26T02:10:10.795Z,96.50
2019-06-26T02:10:43.980Z,96.60
2019-06-26T02:11:17.117Z,96.70
2019-06-26T02:11:49.872Z,96.70
2019-06-26T02:12:22.979Z,96.80
2019-06-26T02:12:56.111Z,96.80
2019-06-26T02:13:29.208Z,96.80
2019-06-26T02:14:01.935Z,96.70
2019-06-26T02:14:35.052Z,96.70
2019-06-26T02:15:08.180Z,96.80
2019-06-26T02:15:41.282Z,96.70
2019-06-26T02:16:14.025Z,96.80
2019-06-26T02:16:47.140Z,96.80
2019-06-26T02:17:20.273Z,96.70
2019-06-26T02:17:53.381Z,96.80
2019-06-26T02:18:33.735Z,96.80
2019-06-26T02:19:11.026Z,96.80
2019-06-26T02:19:44.136Z,96.90
2019-06-26T02:20:17.246Z,96.80
2019-06-26T02:20:49.968Z,96.80
2019-06-26T02:21:23.088Z,96.80
2019-06-26T02:21:56.243Z,96.80
2019-06-26T02:22:29.370Z,96.90
2019-06-26T02:23:02.099Z,96.90
2019-06-26T02:23:35.210Z,96.90
2019-06-26T02:24:08.375Z,96.90
2019-06-26T02:24:41.432Z,97.20
2019-06-26T02:25:14.161Z,97.00
2019-06-26T02:25:47.497Z,97.00
2019-06-26T02:26:20.600Z,97.00
2019-06-26T02:26:53.750Z,97.40
2019-06-26T02:27:26.466Z,97.10
2019-06-26T02:27:59.593Z,97.10
2019-06-26T02:28:32.702Z,97.10
2019-06-26T02:29:05.818Z,97.50
2019-06-26T02:29:38.551Z,97.10
2019-06-26T02:30:11.662Z,97.10
2019-06-26T02:30:44.777Z,97.10
2019-06-26T02:31:17.892Z,97.10
2019-06-26T02:31:50.615Z,97.10
2019-06-26T02:32:23.729Z,97.10
2019-06-26T02:32:56.850Z,97.20
2019-06-26T02:33:29.987Z,97.10
2019-06-26T02:34:02.980Z,97.20
2019-06-26T02:34:36.055Z,97.20
2019-06-26T02:35:10.519Z,97.30
2019-06-26T02:35:43.688Z,97.40
2019-06-26T02:36:16.799Z,97.40
2019-06-26T02:36:49.908Z,97.40
2019-06-26T02:37:23.013Z,97.30
2019-06-26T02:37:55.740Z,97.30
2019-06-26T02:38:28.874Z,97.40
2019-06-26T02:39:02.002Z,97.40
2019-06-26T02:39:35.114Z,97.30
2019-06-26T02:40:07.916Z,97.40
2019-06-26T02:40:41.025Z,97.50
2019-06-26T02:41:14.137Z,97.50
2019-06-26T02:41:47.248Z,97.50
2019-06-26T02:42:19.973Z,97.60
2019-06-26T02:42:53.089Z,97.60
2019-06-26T02:43:26.200Z,97.50
2019-06-26T02:43:59.331Z,97.60
2019-06-26T02:44:51.366Z,97.70
2019-06-26T02:45:06.840Z,97.70
2019-06-26T02:45:39.951Z,97.60
2019-06-26T02:46:13.058Z,97.70
2019-06-26T02:46:45.793Z,97.70
2019-06-26T02:47:20.779Z,97.70
2019-06-26T02:47:53.664Z,97.60
2019-06-26T02:48:26.396Z,97.70
2019-06-26T02:48:59.510Z,97.70
2019-06-26T02:49:32.641Z,97.70
2019-06-26T02:50:06.845Z,97.70
2019-06-26T02:50:39.574Z,97.70
2019-06-26T02:51:12.680Z,97.80
2019-06-26T02:51:45.803Z,97.70
2019-06-26T02:52:18.916Z,97.80
2019-06-26T02:52:51.636Z,97.80
2019-06-26T02:53:24.744Z,97.80
2019-06-26T02:53:57.855Z,97.80
2019-06-26T02:54:30.972Z,97.80
2019-06-26T02:55:04.783Z,97.80
2019-06-26T02:55:37.917Z,97.80
2019-06-26T02:56:11.045Z,97.80
2019-06-26T02:56:44.147Z,97.90
2019-06-26T02:57:16.885Z,98.00
2019-06-26T02:57:50.002Z,98.10
2019-06-26T02:58:23.104Z,98.10
2019-06-26T02:58:56.297Z,98.10
2019-06-26T02:59:29.044Z,98.10
2019-06-26T03:00:02.163Z,98.00
2019-06-26T03:00:35.284Z,98.00
2019-06-26T03:01:08.413Z,98.00
2019-06-26T03:01:41.146Z,97.90
2019-06-26T03:02:14.259Z,98.00
2019-06-26T03:02:47.378Z,98.20
2019-06-26T03:03:20.487Z,98.20
2019-06-26T03:03:53.221Z,98.10
2019-06-26T03:04:26.324Z,98.20
2019-06-26T03:04:59.437Z,98.10
2019-06-26T03:05:32.552Z,98.10
2019-06-26T03:06:05.301Z,98.10
2019-06-26T03:06:38.430Z,98.10
2019-06-26T03:07:11.532Z,98.20
2019-06-26T03:07:44.648Z,98.20
2019-06-26T03:08:17.368Z,98.20
2019-06-26T03:08:50.482Z,98.20
2019-06-26T03:09:23.596Z,98.20
2019-06-26T03:09:56.800Z,98.30
2019-06-26T03:10:29.496Z,98.20
2019-06-26T03:11:02.607Z,98.60
2019-06-26T03:11:35.732Z,98.20
2019-06-26T03:12:08.863Z,98.20
2019-06-26T03:12:41.596Z,98.20
2019-06-26T03:13:14.702Z,98.20
2019-06-26T03:13:47.814Z,98.20
2019-06-26T03:14:20.927Z,98.30
2019-06-26T03:15:07.799Z,98.30
2019-06-26T03:15:28.406Z,98.30
2019-06-26T03:16:01.512Z,98.30
2019-06-26T03:16:34.235Z,98.40
2019-06-26T03:17:07.364Z,98.40
2019-06-26T03:17:54.303Z,98.40
2019-06-26T03:18:15.244Z,98.40
2019-06-26T03:18:47.985Z,98.40
2019-06-26T03:19:21.099Z,98.40
2019-06-26T03:19:54.218Z,98.50
2019-06-26T03:20:28.580Z,98.40
2019-06-26T03:21:01.684Z,98.40
2019-06-26T03:21:34.795Z,98.40
2019-06-26T03:22:07.911Z,98.50
2019-06-26T03:22:40.671Z,98.50
2019-06-26T03:23:13.810Z,98.50
2019-06-26T03:23:46.926Z,98.50
2019-06-26T03:24:20.030Z,98.40
2019-06-26T03:24:52.760Z,98.40
2019-06-26T03:25:25.875Z,98.30
2019-06-26T03:25:58.974Z,98.40
2019-06-26T03:26:32.095Z,98.40
2019-06-26T03:27:04.830Z,98.40
2019-06-26T03:27:37.951Z,98.40
2019-06-26T03:28:11.075Z,98.40
2019-06-26T03:28:44.202Z,98.40
2019-06-26T03:29:16.933Z,98.40
2019-06-26T03:29:50.049Z,98.40
2019-06-26T03:30:23.166Z,98.50
2019-06-26T03:30:56.280Z,98.40
2019-06-26T03:31:29.010Z,98.50
2019-06-26T03:32:02.126Z,98.50
2019-06-26T03:32:35.242Z,98.50
2019-06-26T03:33:08.358Z,98.50
2019-06-26T03:33:41.108Z,98.40
2019-06-26T03:34:14.232Z,98.40
2019-06-26T03:34:47.348Z,98.40
2019-06-26T03:35:20.456Z,98.40
2019-06-26T03:35:53.181Z,98.50
2019-06-26T03:36:26.372Z,98.50
2019-06-26T03:36:59.512Z,98.50
2019-06-26T03:37:32.626Z,98.40
2019-06-26T03:38:05.356Z,98.40
2019-06-26T03:38:38.627Z,98.40
2019-06-26T03:39:11.944Z,98.40
2019-06-26T03:39:45.077Z,98.40
2019-06-26T03:40:17.881Z,98.40
2019-06-26T03:40:50.984Z,98.40
2019-06-26T03:41:24.103Z,98.40
2019-06-26T03:41:57.209Z,98.50
2019-06-26T03:42:29.931Z,98.50
2019-06-26T03:43:03.065Z,98.60
2019-06-26T03:43:36.154Z,98.60
2019-06-26T03:44:09.267Z,98.60
2019-06-26T03:44:42.038Z,98.50
2019-06-26T03:45:25.233Z,98.50
2019-06-26T03:45:49.916Z,98.50
2019-06-26T03:46:22.674Z,98.50
2019-06-26T03:46:55.785Z,98.50
2019-06-26T03:47:28.891Z,98.50
2019-06-26T03:48:02.055Z,98.50
2019-06-26T03:48:34.740Z,98.50
2019-06-26T03:49:07.857Z,98.40
2019-06-26T03:49:40.967Z,98.40
2019-06-26T03:50:14.117Z,98.50
2019-06-26T03:50:46.850Z,98.40
2019-06-26T03:51:19.955Z,98.40
2019-06-26T03:51:53.063Z,98.40
2019-06-26T03:52:26.178Z,98.40
2019-06-26T03:52:58.959Z,98.30
2019-06-26T03:53:32.054Z,98.40
2019-06-26T03:54:05.163Z,98.40
2019-06-26T03:54:38.277Z,98.40
2019-06-26T03:55:11.010Z,98.30
2019-06-26T03:55:44.138Z,98.30
2019-06-26T03:56:17.263Z,98.30
2019-06-26T03:56:50.368Z,98.30
2019-06-26T03:57:23.104Z,98.20
2019-06-26T03:57:56.212Z,98.20
2019-06-26T03:58:29.322Z,98.30
2019-06-26T03:59:02.554Z,98.20
2019-06-26T03:59:35.348Z,98.20
2019-06-26T04:00:08.640Z,98.20
2019-06-26T04:00:42.983Z,98.20
2019-06-26T04:01:16.439Z,98.20
2019-06-26T04:01:49.194Z,98.20
2019-06-26T04:02:22.311Z,98.20
2019-06-26T04:02:55.419Z,98.20
2019-06-26T04:03:28.530Z,98.20
2019-06-26T04:04:01.260Z,98.20
2019-06-26T04:04:34.388Z,98.20
2019-06-26T04:05:07.513Z,98.20
2019-06-26T04:05:40.615Z,98.20
2019-06-26T04:06:13.378Z,98.10
2019-06-26T04:06:46.510Z,98.10
2019-06-26T04:07:19.645Z,98.10
2019-06-26T04:07:52.760Z,98.10
2019-06-26T04:08:25.489Z,98.10
2019-06-26T04:08:58.599Z,98.10
2019-06-26T04:09:31.788Z,98.10
2019-06-26T04:10:07.209Z,98.00
2019-06-26T04:10:43.180Z,98.00
2019-06-26T04:11:15.079Z,98.00
2019-06-26T04:11:48.189Z,98.00
2019-06-26T04:12:20.940Z,98.00
2019-06-26T04:12:54.073Z,97.90
2019-06-26T04:13:27.190Z,97.90
2019-06-26T04:14:00.369Z,97.90
2019-06-26T04:14:33.092Z,97.80
2019-06-26T04:15:09.327Z,97.80
2019-06-26T04:15:43.121Z,97.70
2019-06-26T04:16:15.958Z,97.70
2019-06-26T04:16:49.073Z,97.70
2019-06-26T04:17:22.205Z,98.00
2019-06-26T04:17:55.320Z,97.60
2019-06-26T04:18:28.067Z,97.60
2019-06-26T04:19:01.246Z,97.60
2019-06-26T04:19:34.398Z,97.50
2019-06-26T04:20:07.495Z,97.40
2019-06-26T04:20:40.234Z,97.40
2019-06-26T04:21:13.338Z,97.40
2019-06-26T04:21:46.453Z,97.40
2019-06-26T04:22:19.569Z,97.30
2019-06-26T04:22:52.334Z,97.30
2019-06-26T04:23:25.468Z,97.30
2019-06-26T04:23:58.604Z,97.30
2019-06-26T04:24:31.721Z,97.20
2019-06-26T04:25:07.383Z,97.20
2019-06-26T04:25:40.499Z,97.20
2019-06-26T04:26:13.607Z,97.10
2019-06-26T04:26:46.719Z,97.10
2019-06-26T04:27:19.454Z,97.10
2019-06-26T04:27:52.568Z,97.10
2019-06-26T04:28:25.678Z,97.10
2019-06-26T04:28:58.823Z,97.10
2019-06-26T04:29:31.570Z,97.00
2019-06-26T04:30:06.318Z,97.10
2019-06-26T04:30:39.431Z,97.00
2019-06-26T04:31:12.155Z,97.00
2019-06-26T04:31:45.325Z,97.00
2019-06-26T04:32:18.388Z,97.00
2019-06-26T04:32:51.561Z,97.00
2019-06-26T04:33:24.309Z,96.90
2019-06-26T04:33:57.443Z,96.90
2019-06-26T04:34:30.580Z,96.90
2019-06-26T04:35:03.889Z,96.90
2019-06-26T04:35:36.614Z,96.90
2019-06-26T04:36:09.724Z,96.90
2019-06-26T04:36:42.852Z,97.00
2019-06-26T04:37:15.966Z,96.90
2019-06-26T04:37:48.712Z,96.90
2019-06-26T04:38:21.814Z,96.90
2019-06-26T04:38:54.921Z,96.90
2019-06-26T04:39:28.033Z,96.90
2019-06-26T04:40:00.770Z,96.90
2019-06-26T04:40:33.915Z,96.90
2019-06-26T04:41:07.215Z,96.90
2019-06-26T04:41:40.319Z,96.90
2019-06-26T04:42:13.185Z,96.90
2019-06-26T04:42:46.302Z,96.80
2019-06-26T04:43:19.612Z,96.80
2019-06-26T04:43:52.722Z,96.80
2019-06-26T04:44:25.453Z,96.80
2019-06-26T04:44:58.565Z,96.70
2019-06-26T04:45:31.740Z,96.70
2019-06-26T04:46:04.869Z,96.70
2019-06-26T04:46:37.686Z,96.70
2019-06-26T04:47:10.802Z,96.70
2019-06-26T04:47:44.125Z,96.60
2019-06-26T04:48:17.223Z,96.60
2019-06-26T04:48:49.956Z,96.60
2019-06-26T04:49:23.068Z,96.60
2019-06-26T04:49:56.178Z,96.60
2019-06-26T04:50:29.287Z,96.60
2019-06-26T04:51:02.036Z,96.50
2019-06-26T04:51:35.173Z,96.50
2019-06-26T04:52:08.277Z,96.40
2019-06-26T04:52:41.391Z,96.30
2019-06-26T04:53:14.112Z,96.30
2019-06-26T04:53:47.227Z,96.30
2019-06-26T04:54:20.334Z,96.30
2019-06-26T04:54:53.454Z,96.40
2019-06-26T04:55:26.178Z,96.30
2019-06-26T04:55:59.296Z,96.30
2019-06-26T04:56:32.422Z,96.30
2019-06-26T04:57:05.827Z,96.30
2019-06-26T04:57:38.551Z,96.10
2019-06-26T04:58:11.671Z,96.10
2019-06-26T04:58:44.772Z,96.10
2019-06-26T04:59:17.885Z,96.10
2019-06-26T04:59:50.610Z,96.10
2019-06-26T05:00:23.722Z,96.10
2019-06-26T05:00:56.834Z,96.10
2019-06-26T05:01:29.947Z,96.10
2019-06-26T05:02:02.707Z,96.10
2019-06-26T05:02:35.855Z,96.00
2019-06-26T05:03:08.955Z,95.90
2019-06-26T05:03:42.072Z,95.90
2019-06-26T05:04:15.163Z,95.90
2019-06-26T05:04:48.279Z,95.80
2019-06-26T05:05:21.393Z,95.80
2019-06-26T05:05:54.509Z,95.70
2019-06-26T05:06:27.233Z,95.70
2019-06-26T05:07:00.337Z,95.70
2019-06-26T05:07:33.466Z,95.70
2019-06-26T05:08:06.599Z,95.70
2019-06-26T05:08:39.327Z,95.60
2019-06-26T05:09:12.448Z,95.60
2019-06-26T05:09:45.549Z,95.90
2019-06-26T05:10:18.660Z,95.40
2019-06-26T05:10:51.393Z,95.40
2019-06-26T05:11:24.496Z,95.30
2019-06-26T05:11:57.605Z,95.30
2019-06-26T05:12:30.715Z,95.30
2019-06-26T05:13:03.459Z,95.20
2019-06-26T05:13:36.591Z,95.10
2019-06-26T05:14:09.722Z,95.10
2019-06-26T05:14:42.824Z,95.10
2019-06-26T05:15:15.551Z,95.00
2019-06-26T05:15:48.665Z,95.00
2019-06-26T05:16:21.775Z,94.90
2019-06-26T05:16:54.899Z,94.90
2019-06-26T05:17:27.610Z,94.80
2019-06-26T05:18:00.720Z,94.80
2019-06-26T05:18:33.858Z,94.80
2019-06-26T05:19:06.997Z,94.80
2019-06-26T05:19:39.716Z,94.70
2019-06-26T05:20:12.905Z,94.60
2019-06-26T05:20:46.027Z,94.60
2019-06-26T05:21:19.131Z,94.60
2019-06-26T05:21:51.858Z,94.60
2019-06-26T05:22:24.972Z,94.60
2019-06-26T05:22:58.083Z,94.50
2019-06-26T05:23:31.199Z,94.40
2019-06-26T05:24:03.942Z,94.40
2019-06-26T05:24:37.075Z,94.20
2019-06-26T05:25:10.185Z,94.10
2019-06-26T05:25:43.308Z,94.00
2019-06-26T05:26:16.121Z,93.90
2019-06-26T05:26:49.238Z,93.90
2019-06-26T05:27:22.359Z,93.80
2019-06-26T05:27:55.465Z,93.80
2019-06-26T05:28:28.228Z,93.80
2019-06-26T05:29:01.299Z,93.80
2019-06-26T05:29:34.435Z,93.70
2019-06-26T05:30:07.640Z,93.50
2019-06-26T05:30:40.371Z,93.30
2019-06-26T05:31:13.485Z,93.30
2019-06-26T05:31:46.587Z,93.20
2019-06-26T05:32:19.737Z,93.30
2019-06-26T05:32:52.537Z,93.20
2019-06-26T05:33:25.643Z,93.10
2019-06-26T05:33:58.752Z,92.90
2019-06-26T05:34:31.863Z,92.40
2019-06-26T05:35:06.079Z,92.50
2019-06-26T05:35:39.199Z,92.50
2019-06-26T05:36:12.311Z,92.50
2019-06-26T05:36:45.436Z,92.50
2019-06-26T05:37:18.151Z,92.50
2019-06-26T05:37:51.271Z,92.40
2019-06-26T05:38:24.371Z,92.50
2019-06-26T05:38:57.486Z,92.40
2019-06-26T05:39:30.538Z,92.30
2019-06-26T05:40:05.313Z,92.60
2019-06-26T05:40:38.444Z,92.20
2019-06-26T05:41:11.289Z,92.20
2019-06-26T05:41:44.392Z,92.00
2019-06-26T05:42:17.504Z,91.60
2019-06-26T05:42:50.610Z,91.60
2019-06-26T05:43:23.344Z,91.70
2019-06-26T05:43:56.515Z,91.70
2019-06-26T05:44:29.781Z,91.70
2019-06-26T05:45:03.095Z,91.50
2019-06-26T05:45:35.787Z,91.60
2019-06-26T05:46:08.919Z,91.50
2019-06-26T05:46:42.204Z,91.50
2019-06-26T05:47:15.314Z,91.40
2019-06-26T05:47:48.040Z,91.20
2019-06-26T05:48:21.151Z,91.20
2019-06-26T05:48:54.288Z,91.20
2019-06-26T05:49:27.399Z,91.20
2019-06-26T05:50:00.236Z,91.10
2019-06-26T05:50:33.341Z,91.20
2019-06-26T05:51:06.453Z,91.10
2019-06-26T05:51:39.592Z,91.10
2019-06-26T05:52:12.372Z,91.10
2019-06-26T05:52:45.626Z,91.10
2019-06-26T05:53:18.719Z,90.80
2019-06-26T05:53:51.954Z,90.70
2019-06-26T05:54:24.687Z,90.70
2019-06-26T05:54:57.796Z,90.50
2019-06-26T05:55:30.904Z,90.40
2019-06-26T05:56:04.057Z,90.40
2019-06-26T05:56:36.855Z,90.30
2019-06-26T05:57:10.126Z,90.00
2019-06-26T05:57:43.267Z,90.00
2019-06-26T05:58:16.370Z,90.00
2019-06-26T05:58:49.296Z,89.90
2019-06-26T05:59:22.434Z,89.70
2019-06-26T05:59:55.694Z,89.80
2019-06-26T06:00:28.801Z,89.70
2019-06-26T06:01:01.715Z,89.70
2019-06-26T06:01:34.820Z,89.80
2019-06-26T06:02:08.098Z,89.80
2019-06-26T06:02:41.237Z,89.80
2019-06-26T06:03:13.992Z,88.80
2019-06-26T06:03:47.083Z,88.70
2019-06-26T06:04:20.191Z,88.90
2019-06-26T06:04:53.308Z,88.80
2019-06-26T06:05:26.134Z,88.80
2019-06-26T06:05:59.424Z,88.90
2019-06-26T06:06:41.460Z,88.80
2019-06-26T06:07:06.929Z,88.70
2019-06-26T06:07:40.182Z,88.50
2019-06-26T06:08:13.319Z,88.50
2019-06-26T06:08:46.454Z,88.60
2019-06-26T06:09:19.181Z,88.50
2019-06-26T06:09:52.292Z,88.30
2019-06-26T06:10:25.402Z,88.20
2019-06-26T06:10:58.601Z,87.00
2019-06-26T06:11:31.336Z,87.00
2019-06-26T06:12:04.445Z,87.30
2019-06-26T06:12:37.562Z,87.00
2019-06-26T06:13:10.666Z,87.00
2019-06-26T06:13:43.421Z,86.70
2019-06-26T06:14:16.552Z,86.70
2019-06-26T06:14:49.666Z,86.80
2019-06-26T06:15:22.781Z,86.80
2019-06-26T06:15:55.516Z,86.80
2019-06-26T06:16:28.630Z,86.90
2019-06-26T06:17:01.743Z,86.70
2019-06-26T06:17:34.850Z,85.90
2019-06-26T06:18:07.585Z,85.40
2019-06-26T06:18:40.706Z,85.50
2019-06-26T06:19:13.843Z,85.60
2019-06-26T06:19:46.977Z,84.40
2019-06-26T06:20:21.331Z,84.70
2019-06-26T06:20:54.463Z,84.80
2019-06-26T06:21:27.561Z,84.80
2019-06-26T06:22:00.668Z,84.90
2019-06-26T06:22:33.392Z,84.80
2019-06-26T06:23:06.510Z,84.70
2019-06-26T06:23:39.631Z,84.50
2019-06-26T06:24:12.747Z,84.40
2019-06-26T06:24:45.492Z,83.30
2019-06-26T06:25:18.632Z,83.60
2019-06-26T06:25:51.735Z,83.50
2019-06-26T06:26:24.845Z,83.50
2019-06-26T06:26:57.576Z,83.60
2019-06-26T06:27:30.691Z,83.70
2019-06-26T06:28:03.799Z,83.50
2019-06-26T06:28:36.905Z,83.20
2019-06-26T06:29:09.644Z,83.20
2019-06-26T06:29:42.756Z,83.20
2019-06-26T06:30:15.898Z,82.90
2019-06-26T06:30:49.051Z,82.90
2019-06-26T06:31:21.782Z,82.90
2019-06-26T06:31:54.896Z,82.60
2019-06-26T06:32:28.004Z,82.30
2019-06-26T06:33:01.115Z,82.20
2019-06-26T06:33:33.843Z,82.10
2019-06-26T06:34:06.947Z,82.00
2019-06-26T06:34:40.077Z,82.10
2019-06-26T06:35:13.183Z,81.80
2019-06-26T06:35:45.924Z,81.80
2019-06-26T06:36:19.067Z,81.00
2019-06-26T06:36:52.183Z,81.00
2019-06-26T06:37:25.317Z,81.30
2019-06-26T06:37:58.035Z,81.20
2019-06-26T06:38:31.147Z,81.10
2019-06-26T06:39:05.732Z,81.30
2019-06-26T06:39:38.454Z,81.10
2019-06-26T06:40:11.569Z,81.10
2019-06-26T06:40:44.676Z,81.00
2019-06-26T06:41:17.815Z,81.00
2019-06-26T06:41:50.579Z,80.80
2019-06-26T06:42:23.690Z,80.40
2019-06-26T06:42:56.800Z,80.10
2019-06-26T06:43:29.917Z,79.30
2019-06-26T06:44:02.646Z,79.10
2019-06-26T06:44:35.759Z,78.90
2019-06-26T06:45:09.650Z,79.00
2019-06-26T06:45:42.763Z,79.20
2019-06-26T06:46:15.499Z,79.40
2019-06-26T06:47:02.616Z,79.40
2019-06-26T06:47:23.520Z,79.20
2019-06-26T06:47:56.535Z,79.20
2019-06-26T06:48:29.646Z,78.30
2019-06-26T06:49:02.763Z,78.30
2019-06-26T06:49:35.864Z,78.30
2019-06-26T06:50:08.584Z,78.00
2019-06-26T06:50:41.707Z,78.10
2019-06-26T06:51:14.809Z,77.90
2019-06-26T06:51:47.923Z,78.00
2019-06-26T06:52:20.675Z,78.10
2019-06-26T06:52:53.806Z,78.20
2019-06-26T06:53:26.936Z,78.10
2019-06-26T06:54:00.051Z,77.90
2019-06-26T06:54:32.784Z,77.80
2019-06-26T06:55:06.559Z,78.80
2019-06-26T06:55:39.678Z,77.80
2019-06-26T06:56:12.798Z,77.70
2019-06-26T06:56:45.523Z,77.80
2019-06-26T06:57:18.639Z,77.70
2019-06-26T06:57:51.786Z,77.20
2019-06-26T06:58:24.899Z,77.00
2019-06-26T06:58:57.633Z,76.00
2019-06-26T06:59:30.744Z,75.90
2019-06-26T07:00:05.136Z,75.90
2019-06-26T07:00:38.252Z,75.70
2019-06-26T07:01:10.978Z,76.00
2019-06-26T07:01:44.097Z,76.20
2019-06-26T07:02:17.202Z,76.20
2019-06-26T07:02:50.316Z,76.20
2019-06-26T07:03:23.058Z,76.10
2019-06-26T07:03:56.193Z,75.80
2019-06-26T07:04:29.542Z,75.40
2019-06-26T07:05:03.108Z,74.80
2019-06-26T07:05:35.843Z,74.90
2019-06-26T07:06:08.953Z,74.70
2019-06-26T07:06:42.074Z,74.80